Time;durP1;ratioP1;P1;durP2;ratioP2;P2;SDS_P1;SDS_P2;PMS_P1;PMS_P2;Temp;Humidity;BMP_temperature;BMP_pressure;BME280_temperature;BME280_humidity;BME280_pressure;Samples;Min_cycle;Max_cycle;Signal;HPM_P1;HPM_P2
2022/08/27 00:00:33;;;;;;;4.2;3.4;;;;;;;;;;;;;
2022/08/27 00:03:00;;;;;;;4;3.5;;;;;;;;;;;;;
2022/08/27 00:05:25;;;;;;;4.2;3.6;;;;;;;;;;;;;
2022/08/27 00:07:51;;;;;;;3.6;3.3;;;;;;;;;;;;;
2022/08/27 00:10:16;;;;;;;4.5;3.4;;;;;;;;;;;;;
2022/08/27 00:12:42;;;;;;;5.2;3.5;;;;;;;;;;;;;
2022/08/27 00:15:07;;;;;;;3.4;3.1;;;;;;;;;;;;;
2022/08/27 00:17:33;;;;;;;3.7;3.1;;;;;;;;;;;;;
2022/08/27 00:19:58;;;;;;;3.5;3.2;;;;;;;;;;;;;
2022/08/27 00:22:25;;;;;;;3.5;3.2;;;;;;;;;;;;;
2022/08/27 00:24:50;;;;;;;3.8;3.5;;;;;;;;;;;;;
2022/08/27 00:27:16;;;;;;;5;3.5;;;;;;;;;;;;;
2022/08/27 00:29:41;;;;;;;3.5;3.2;;;;;;;;;;;;;
2022/08/27 00:32:07;;;;;;;3.4;3.1;;;;;;;;;;;;;
2022/08/27 00:34:33;;;;;;;3.7;3.3;;;;;;;;;;;;;
2022/08/27 00:36:58;;;;;;;3.5;3.2;;;;;;;;;;;;;
2022/08/27 00:39:23;;;;;;;4.6;3.2;;;;;;;;;;;;;
2022/08/27 00:41:49;;;;;;;4;3.6;;;;;;;;;;;;;
2022/08/27 00:44:14;;;;;;;4.3;3.5;;;;;;;;;;;;;
2022/08/27 00:46:40;;;;;;;5.2;4;;;;;;;;;;;;;
2022/08/27 00:49:05;;;;;;;3.9;3.5;;;;;;;;;;;;;
2022/08/27 00:51:32;;;;;;;3.9;3.6;;;;;;;;;;;;;
2022/08/27 00:53:56;;;;;;;4.9;3.9;;;;;;;;;;;;;
2022/08/27 00:56:23;;;;;;;4.8;3.8;;;;;;;;;;;;;
2022/08/27 00:58:48;;;;;;;5.6;3.9;;;;;;;;;;;;;
2022/08/27 01:01:14;;;;;;;4.1;3.7;;;;;;;;;;;;;
2022/08/27 01:03:39;;;;;;;4;3.6;;;;;;;;;;;;;
2022/08/27 01:06:05;;;;;;;3.7;3.4;;;;;;;;;;;;;
2022/08/27 01:08:30;;;;;;;4.2;3.7;;;;;;;;;;;;;
2022/08/27 01:10:56;;;;;;;4.5;4.1;;;;;;;;;;;;;
2022/08/27 01:13:21;;;;;;;3.9;3.5;;;;;;;;;;;;;
2022/08/27 01:15:49;;;;;;;4.1;3.7;;;;;;;;;;;;;
2022/08/27 01:18:14;;;;;;;4.5;4.1;;;;;;;;;;;;;
2022/08/27 01:20:39;;;;;;;4.1;3.7;;;;;;;;;;;;;
2022/08/27 01:23:04;;;;;;;3.6;3.3;;;;;;;;;;;;;
2022/08/27 01:25:31;;;;;;;5.1;3.9;;;;;;;;;;;;;
2022/08/27 01:27:56;;;;;;;4.1;3.7;;;;;;;;;;;;;
2022/08/27 01:30:22;;;;;;;4.5;3.7;;;;;;;;;;;;;
2022/08/27 01:32:47;;;;;;;4;3.4;;;;;;;;;;;;;
2022/08/27 01:35:13;;;;;;;4.1;3.7;;;;;;;;;;;;;
2022/08/27 01:37:38;;;;;;;4.4;3.9;;;;;;;;;;;;;
2022/08/27 01:40:04;;;;;;;4.4;3.4;;;;;;;;;;;;;
2022/08/27 01:42:29;;;;;;;5;4.1;;;;;;;;;;;;;
2022/08/27 01:44:56;;;;;;;6;4.4;;;;;;;;;;;;;
2022/08/27 01:47:21;;;;;;;5;4.4;;;;;;;;;;;;;
2022/08/27 01:49:46;;;;;;;5.1;4.2;;;;;;;;;;;;;
2022/08/27 01:52:12;;;;;;;5.6;4.4;;;;;;;;;;;;;
2022/08/27 01:54:38;;;;;;;5;4.3;;;;;;;;;;;;;
2022/08/27 01:57:03;;;;;;;4.7;4.1;;;;;;;;;;;;;
2022/08/27 01:59:31;;;;;;;5;4.5;;;;;;;;;;;;;
2022/08/27 02:01:56;;;;;;;4.1;3.8;;;;;;;;;;;;;
2022/08/27 02:04:21;;;;;;;5.1;4.5;;;;;;;;;;;;;
2022/08/27 02:06:47;;;;;;;5.6;4;;;;;;;;;;;;;
2022/08/27 02:09:12;;;;;;;4.5;4.1;;;;;;;;;;;;;
2022/08/27 02:11:37;;;;;;;5.2;4.7;;;;;;;;;;;;;
2022/08/27 02:14:03;;;;;;;4.9;4.4;;;;;;;;;;;;;
2022/08/27 02:16:28;;;;;;;5.4;4.4;;;;;;;;;;;;;
2022/08/27 02:18:55;;;;;;;5.6;4.2;;;;;;;;;;;;;
2022/08/27 02:21:20;;;;;;;5.3;4.8;;;;;;;;;;;;;
2022/08/27 02:23:45;;;;;;;5.2;4.3;;;;;;;;;;;;;
2022/08/27 02:26:11;;;;;;;4.5;4.1;;;;;;;;;;;;;
2022/08/27 02:28:37;;;;;;;4.2;3.8;;;;;;;;;;;;;
2022/08/27 02:31:02;;;;;;;4.6;3.9;;;;;;;;;;;;;
2022/08/27 02:33:28;;;;;;;4.3;3.9;;;;;;;;;;;;;
2022/08/27 02:35:52;;;;;;;4.2;3.8;;;;;;;;;;;;;
2022/08/27 02:38:19;;;;;;;6.3;4.1;;;;;;;;;;;;;
2022/08/27 02:40:44;;;;;;;4;3.5;;;;;;;;;;;;;
2022/08/27 02:43:09;;;;;;;4.9;3.7;;;;;;;;;;;;;
2022/08/27 02:45:35;;;;;;;3.6;3.3;;;;;;;;;;;;;
2022/08/27 02:48:02;;;;;;;3.9;3.6;;;;;;;;;;;;;
2022/08/27 02:50:27;;;;;;;4.2;3.8;;;;;;;;;;;;;
2022/08/27 02:52:52;;;;;;;4.2;3.8;;;;;;;;;;;;;
2022/08/27 02:55:18;;;;;;;6.9;4.2;;;;;;;;;;;;;
2022/08/27 02:57:45;;;;;;;4.7;3.6;;;;;;;;;;;;;
2022/08/27 03:00:11;;;;;;;4.4;4;;;;;;;;;;;;;
2022/08/27 03:02:38;;;;;;;4.5;3.9;;;;;;;;;;;;;
2022/08/27 03:05:03;;;;;;;4.2;3.8;;;;;;;;;;;;;
2022/08/27 03:07:30;;;;;;;4.8;3.7;;;;;;;;;;;;;
2022/08/27 03:09:55;;;;;;;4.3;3.9;;;;;;;;;;;;;
2022/08/27 03:12:20;;;;;;;5.3;4;;;;;;;;;;;;;
2022/08/27 03:14:45;;;;;;;4.3;3.9;;;;;;;;;;;;;
2022/08/27 03:19:35;;;;;;;3.9;3.5;;;;;;;;;;;;;
2022/08/27 03:22:00;;;;;;;4.2;3.7;;;;;;;;;;;;;
2022/08/27 03:24:25;;;;;;;4.2;3.5;;;;;;;;;;;;;
2022/08/27 03:26:52;;;;;;;4;3.6;;;;;;;;;;;;;
2022/08/27 03:29:17;;;;;;;4;3.5;;;;;;;;;;;;;
2022/08/27 03:31:44;;;;;;;3.8;3.5;;;;;;;;;;;;;
2022/08/27 03:34:09;;;;;;;3.7;3.4;;;;;;;;;;;;;
2022/08/27 03:36:36;;;;;;;3.7;3.3;;;;;;;;;;;;;
2022/08/27 03:39:01;;;;;;;3.8;3.5;;;;;;;;;;;;;
2022/08/27 03:41:26;;;;;;;3.9;3.6;;;;;;;;;;;;;
2022/08/27 03:43:52;;;;;;;5.2;3.7;;;;;;;;;;;;;
2022/08/27 03:46:19;;;;;;;4.9;3.8;;;;;;;;;;;;;
2022/08/27 03:48:43;;;;;;;4.9;3.9;;;;;;;;;;;;;
2022/08/27 03:51:10;;;;;;;4.8;4.4;;;;;;;;;;;;;
2022/08/27 03:53:35;;;;;;;4.5;4.1;;;;;;;;;;;;;
2022/08/27 03:56:00;;;;;;;5.2;3.7;;;;;;;;;;;;;
2022/08/27 03:58:26;;;;;;;3.9;3.5;;;;;;;;;;;;;
2022/08/27 04:02:37;;;;;;;3.8;3.5;;;;;;;17.85;95.21973;935.3172;;;;
2022/08/27 04:05:02;;;;;;;3.9;3.6;;;;;;;17.87;94.95605;935.3796;;;;
2022/08/27 04:07:27;;;;;;;4.1;3.7;;;;;;;17.82;95.30664;935.3917;;;;
2022/08/27 04:09:57;;;;;;;4.2;3.8;;;;;;;17.71;95.90918;935.3956;;;;
2022/08/27 04:12:21;;;;;;;4.1;3.7;;;;;;;17.69;96.38184;935.4139;;;;
2022/08/27 04:14:51;;;;;;;4.3;3.7;;;;;;;17.72;96.5127;935.4012;;;;
2022/08/27 04:17:17;;;;;;;4.3;3.9;;;;;;;17.72;96.64063;935.3972;;;;
2022/08/27 04:19:42;;;;;;;4.4;3.9;;;;;;;17.8;96.55664;935.4163;;;;
2022/08/27 04:22:08;;;;;;;5.6;4.4;;;;;;;17.92;96.83789;935.459;;;;
2022/08/27 04:24:36;;;;;;;5.1;4.4;;;;;;;17.96;96.85742;935.4959;;;;
2022/08/27 04:27:02;;;;;;;5.4;4;;;;;;;17.98;96.59375;935.464;;;;
2022/08/27 04:29:31;;;;;;;4.5;3.9;;;;;;;18.03;96.48926;935.4744;;;;
2022/08/27 04:31:57;;;;;;;5.1;4.4;;;;;;;18.09;96.16895;935.5792;;;;
2022/08/27 04:34:26;;;;;;;4.3;3.9;;;;;;;18.09;95.57422;935.6478;;;;
2022/08/27 04:36:56;;;;;;;6.9;4.9;;;;;;;18.1;95.62207;935.6113;;;;
2022/08/27 04:39:21;;;;;;;5;4.5;;;;;;;18.11;95.51758;935.6224;;;;
2022/08/27 04:41:49;;;;;;;4.6;4;;;;;;;18.16;95.19238;935.6599;;;;
2022/08/27 04:44:14;;;;;;;5.6;4.5;;;;;;;18.19;95.41016;935.7349;;;;
2022/08/27 04:46:46;;;;;;;5;4.3;;;;;;;18.22;95.78711;935.723;;;;
2022/08/27 04:49:16;;;;;;;4.8;4.3;;;;;;;18.19;95.81641;935.717;;;;
2022/08/27 04:51:46;;;;;;;4.1;3.6;;;;;;;18.2;94.38867;935.7201;;;;
2022/08/27 04:54:16;;;;;;;3.8;3.5;;;;;;;18.25;93.37793;935.7676;;;;
2022/08/27 04:56:48;;;;;;;4.2;3.8;;;;;;;18.27;93.18457;935.7703;;;;
2022/08/27 04:59:17;;;;;;;3.4;3.1;;;;;;;18.28;93.00977;935.7403;;;;
2022/08/27 05:01:43;;;;;;;3.5;3.2;;;;;;;18.32;92.47363;935.8287;;;;
2022/08/27 05:04:15;;;;;;;4.3;3.4;;;;;;;18.32;92.46191;935.8562;;;;
2022/08/27 05:06:44;;;;;;;4;3.7;;;;;;;18.39;92.66504;935.8672;;;;
2022/08/27 05:09:09;;;;;;;4.2;3.5;;;;;;;18.34;93.78125;935.8484;;;;
2022/08/27 05:11:35;;;;;;;3.9;3.5;;;;;;;18.28;93.59082;935.8387;;;;
2022/08/27 05:14:01;;;;;;;4;3.6;;;;;;;18.33;93.47461;935.731;;;;
2022/08/27 05:16:28;;;;;;;4;3.6;;;;;;;18.42;93.16797;935.7797;;;;
2022/08/27 05:18:57;;;;;;;4;3.6;;;;;;;18.39;92.6748;935.7891;;;;
2022/08/27 05:21:29;;;;;;;4.2;3.5;;;;;;;18.35;93.17871;935.8045;;;;
2022/08/27 05:23:55;;;;;;;4.2;3.8;;;;;;;18.45;93.30371;935.7888;;;;
2022/08/27 05:26:23;;;;;;;4;3.6;;;;;;;18.38;93.6377;935.6797;;;;
2022/08/27 05:28:48;;;;;;;5;3.9;;;;;;;18.29;95.10547;935.6569;;;;
2022/08/27 05:31:17;;;;;;;5.1;4;;;;;;;18.33;94.53223;935.6213;;;;
2022/08/27 05:33:42;;;;;;;5.8;3.5;;;;;;;18.34;94.09277;935.5236;;;;
2022/08/27 05:36:10;;;;;;;3.6;3.1;;;;;;;18.4;93.67773;935.6614;;;;
2022/08/27 05:38:35;;;;;;;4.2;3.7;;;;;;;18.47;93.52832;935.6166;;;;
2022/08/27 05:41:04;;;;;;;4.1;3.6;;;;;;;18.49;93.09082;935.6749;;;;
2022/08/27 05:43:34;;;;;;;3.8;3.5;;;;;;;18.57;92.38672;935.6373;;;;
2022/08/27 05:46:07;;;;;;;4;3.5;;;;;;;18.6;92.9043;935.6189;;;;
2022/08/27 05:48:33;;;;;;;4.1;3.6;;;;;;;18.62;93.20117;935.5814;;;;
2022/08/27 05:50:58;;;;;;;5.2;3.8;;;;;;;18.65;93.03223;935.5867;;;;
2022/08/27 05:53:24;;;;;;;3.9;3.4;;;;;;;18.65;93.32422;935.5115;;;;
2022/08/27 05:55:48;;;;;;;3.9;3.4;;;;;;;18.69;93.35352;935.584;;;;
2022/08/27 06:03:13;;;;;;;4.3;3.4;;;;;;;18.61;93.58105;935.65;;;;
2022/08/27 06:05:41;;;;;;;4.7;3.6;;;;;;;18.52;93.87695;935.6877;;;;
2022/08/27 06:08:06;;;;;;;3.6;3.3;;;;;;;18.63;93.56152;935.6599;;;;
2022/08/27 06:10:34;;;;;;;3.6;3.3;;;;;;;18.71;92.79883;935.6786;;;;
2022/08/27 06:12:58;;;;;;;4.7;3.4;;;;;;;18.72;92.6377;935.6568;;;;
2022/08/27 06:15:30;;;;;;;4.1;3.4;;;;;;;18.81;92.28711;935.6978;;;;
2022/08/27 06:17:58;;;;;;;3.5;3.2;;;;;;;18.88;91.92969;935.7043;;;;
2022/08/27 06:20:23;;;;;;;3.9;3.3;;;;;;;18.94;91.25391;935.6995;;;;
2022/08/27 06:22:50;;;;;;;3.8;3.2;;;;;;;18.98;91.13379;935.7291;;;;
2022/08/27 06:25:15;;;;;;;3.4;3.1;;;;;;;19.1;90.65918;935.752;;;;
2022/08/27 06:27:41;;;;;;;4.1;3.3;;;;;;;18.97;91.45898;935.7293;;;;
2022/08/27 06:30:06;;;;;;;3.7;3.4;;;;;;;18.91;93.00586;935.7133;;;;
2022/08/27 06:32:33;;;;;;;5.8;3.5;;;;;;;18.86;93.75098;935.692;;;;
2022/08/27 06:34:58;;;;;;;4.2;3.8;;;;;;;18.84;94.3291;935.741;;;;
2022/08/27 06:37:29;;;;;;;5.1;4.6;;;;;;;18.88;93.23047;935.765;;;;
2022/08/27 06:39:57;;;;;;;5.3;4.4;;;;;;;18.87;93.7041;935.7782;;;;
2022/08/27 06:42:22;;;;;;;4.7;4.3;;;;;;;19.01;91.95605;935.7807;;;;
2022/08/27 06:44:52;;;;;;;5.2;4.5;;;;;;;19.02;92.15332;935.7661;;;;
2022/08/27 06:47:16;;;;;;;4.4;4;;;;;;;19.17;91.06738;935.818;;;;
2022/08/27 06:49:46;;;;;;;7.9;4.4;;;;;;;19.21;90.08691;935.8217;;;;
2022/08/27 06:52:11;;;;;;;4.7;4.3;;;;;;;19.23;89.98828;935.7115;;;;
2022/08/27 06:54:41;;;;;;;5.9;4.2;;;;;;;19.34;88.54199;935.8264;;;;
2022/08/27 06:57:06;;;;;;;6.1;4.3;;;;;;;19.48;89.01172;935.9341;;;;
2022/08/27 06:59:36;;;;;;;5.8;4;;;;;;;19.51;88.49316;935.8574;;;;
2022/08/27 07:02:03;;;;;;;4;3.6;;;;;;;19.58;87.86426;935.8273;;;;
2022/08/27 07:04:30;;;;;;;4.6;3.9;;;;;;;19.6;88.84961;935.8962;;;;
2022/08/27 07:07:02;;;;;;;5;3.9;;;;;;;19.58;87.01367;935.8718;;;;
2022/08/27 07:09:29;;;;;;;4.5;3.8;;;;;;;19.47;87.02734;935.895;;;;
2022/08/27 07:11:52;;;;;;;5.5;3.8;;;;;;;19.49;88.86035;935.8928;;;;
2022/08/27 07:14:17;;;;;;;4.9;3.7;;;;;;;19.51;87.8291;935.9001;;;;
2022/08/27 07:16:46;;;;;;;4.2;3.8;;;;;;;19.54;87.90625;935.9455;;;;
2022/08/27 07:19:11;;;;;;;5.5;3.9;;;;;;;19.56;87.80469;935.9554;;;;
2022/08/27 07:21:38;;;;;;;4.8;4.1;;;;;;;19.67;86.13379;935.8986;;;;
2022/08/27 07:24:06;;;;;;;7.1;4.5;;;;;;;19.85;87.75684;935.8173;;;;
2022/08/27 07:26:30;;;;;;;6.1;4.2;;;;;;;20.06;87.26172;935.8616;;;;
2022/08/27 07:28:55;;;;;;;5;4.1;;;;;;;20.24;85.46387;935.8628;;;;
2022/08/27 07:31:24;;;;;;;5.1;3.8;;;;;;;20.37;84.28613;935.8859;;;;
2022/08/27 07:33:48;;;;;;;4.5;3.6;;;;;;;20.52;82.64453;935.9337;;;;
2022/08/27 07:36:22;;;;;;;4.1;3.7;;;;;;;20.56;82.78223;935.9225;;;;
2022/08/27 07:38:49;;;;;;;4.2;3.8;;;;;;;20.69;81.55371;935.892;;;;
2022/08/27 07:41:14;;;;;;;4.1;3.6;;;;;;;20.9;80.8916;935.9336;;;;
2022/08/27 07:46:13;;;;;;;3.4;3.1;;;;;;;21.74;76.93359;935.9941;;;;
2022/08/27 07:48:38;;;;;;;3.6;3.3;;;;;;;22.16;75.71582;935.9135;;;;
2022/08/27 07:51:04;;;;;;;3.8;3;;;;;;;22.59;73.53711;935.9562;;;;
2022/08/27 07:53:31;;;;;;;3.1;2.8;;;;;;;22.88;69.75781;936.0164;;;;
2022/08/27 07:55:56;;;;;;;3.8;3.4;;;;;;;22.51;72.77246;935.9933;;;;
2022/08/27 07:58:25;;;;;;;3.5;3.2;;;;;;;22.7;71.65332;936.0308;;;;
2022/08/27 08:00:50;;;;;;;3.3;3;;;;;;;22.8;69.69629;936.0145;;;;
2022/08/27 08:03:20;;;;;;;3.5;2.9;;;;;;;22.7;71.94824;936.0053;;;;
2022/08/27 08:05:48;;;;;;;3.8;3.1;;;;;;;22.8;70.57813;936.0273;;;;
2022/08/27 08:08:12;;;;;;;3.6;3;;;;;;;22.67;71.6709;936.0304;;;;
2022/08/27 08:10:41;;;;;;;3.1;2.7;;;;;;;22.75;71.01758;935.9789;;;;
2022/08/27 08:13:06;;;;;;;3.3;2.7;;;;;;;22.89;69.875;936.0159;;;;
2022/08/27 08:15:32;;;;;;;2.7;2.4;;;;;;;22.63;68.53125;936.0499;;;;
2022/08/27 08:18:00;;;;;;;3;2.7;;;;;;;22.61;70.7832;936.0468;;;;
2022/08/27 08:20:25;;;;;;;2.8;2.6;;;;;;;22.91;71.12402;936.0421;;;;
2022/08/27 08:22:52;;;;;;;2.8;2.5;;;;;;;23.12;67.74902;936.027;;;;
2022/08/27 08:25:17;;;;;;;4.4;2.8;;;;;;;23.59;66.45605;936.0499;;;;
2022/08/27 08:27:47;;;;;;;2.5;2.3;;;;;;;24.06;65.41992;935.9967;;;;
2022/08/27 08:30:17;;;;;;;3.1;2.2;;;;;;;24.46;63.12305;936.039;;;;
2022/08/27 08:32:50;;;;;;;3;2.1;;;;;;;24.92;63.57617;936.072;;;;
2022/08/27 08:35:19;;;;;;;2.4;2.2;;;;;;;25.28;59.05762;936.0172;;;;
2022/08/27 08:37:43;;;;;;;2.2;2;;;;;;;24.71;57.2627;935.97;;;;
2022/08/27 08:40:15;;;;;;;2;1.9;;;;;;;25.17;59.25684;936.0058;;;;
2022/08/27 08:42:49;;;;;;;2.4;2.2;;;;;;;25.38;60.27734;935.9709;;;;
2022/08/27 08:45:17;;;;;;;4.3;2.5;;;;;;;25.34;59.36133;936.0399;;;;
2022/08/27 08:47:45;;;;;;;2.2;2;;;;;;;25.41;57.41016;936.0477;;;;
2022/08/27 08:50:13;;;;;;;1.9;1.8;;;;;;;24.92;58.96289;936.1003;;;;
2022/08/27 08:52:44;;;;;;;2.1;2;;;;;;;24.99;59.64551;936.0723;;;;
2022/08/27 08:55:09;;;;;;;2.2;2;;;;;;;25.13;61.23438;936.0469;;;;
2022/08/27 08:57:35;;;;;;;2.2;2;;;;;;;25.1;59.10449;936.025;;;;
2022/08/27 09:00:00;;;;;;;2.3;2.1;;;;;;;24.94;59.47266;936.0856;;;;
2022/08/27 09:02:28;;;;;;;2.1;1.9;;;;;;;24.89;61.03613;936.1016;;;;
2022/08/27 09:04:53;;;;;;;2;1.9;;;;;;;24.34;62.30371;936.1113;;;;
2022/08/27 09:07:25;;;;;;;2;1.8;;;;;;;24.08;64.51758;936.1079;;;;
2022/08/27 09:09:59;;;;;;;1.9;1.8;;;;;;;24.4;58.7168;936.0359;;;;
2022/08/27 09:12:23;;;;;;;1.9;1.8;;;;;;;24.33;62.3623;936.0594;;;;
2022/08/27 09:14:49;;;;;;;2.7;2.5;;;;;;;24.26;61.79785;935.9899;;;;
2022/08/27 09:17:16;;;;;;;2.4;2.2;;;;;;;24.45;61.24609;935.9835;;;;
2022/08/27 09:19:42;;;;;;;2.2;2;;;;;;;24.93;59.2832;936.0112;;;;
2022/08/27 09:22:07;;;;;;;2.2;2.1;;;;;;;25.1;59.19922;935.978;;;;
2022/08/27 09:24:36;;;;;;;2.4;2.2;;;;;;;25.12;60.51172;935.99;;;;
2022/08/27 09:27:04;;;;;;;2.4;1.9;;;;;;;25.37;60.85352;935.9584;;;;
2022/08/27 09:29:29;;;;;;;2.1;2;;;;;;;25.31;61.68359;935.9573;;;;
2022/08/27 09:31:54;;;;;;;2.1;1.9;;;;;;;25.62;58.95996;935.9264;;;;
2022/08/27 09:34:20;;;;;;;2.6;2;;;;;;;26.13;56.01172;935.8681;;;;
2022/08/27 09:36:47;;;;;;;1.8;1.7;;;;;;;25.59;59.00391;935.8025;;;;
2022/08/27 09:39:12;;;;;;;2.2;2;;;;;;;25.01;59.56641;935.8937;;;;
2022/08/27 09:41:38;;;;;;;2.2;2;;;;;;;25.33;61.12012;935.8602;;;;
2022/08/27 09:44:03;;;;;;;2.5;1.9;;;;;;;25.11;64.21484;935.8357;;;;
2022/08/27 09:46:28;;;;;;;3;2;;;;;;;25.39;60.87891;935.8755;;;;
2022/08/27 09:48:53;;;;;;;2.2;1.9;;;;;;;25.41;58.48438;935.7812;;;;
2022/08/27 09:51:18;;;;;;;2.1;1.8;;;;;;;25.53;59.32715;935.7408;;;;
2022/08/27 09:56:08;;;;;;;2.9;1.7;;;;;;;25.26;61.74609;935.7728;;;;
2022/08/27 09:58:34;;;;;;;1.7;1.6;;;;;;;24.29;59.89258;935.6344;;;;
2022/08/27 10:01:00;;;;;;;2.3;1.9;;;;;;;24.37;60.91797;935.7042;;;;
2022/08/27 10:03:25;;;;;;;1.7;1.6;;;;;;;25.09;60.7207;935.6761;;;;
2022/08/27 10:05:53;;;;;;;1.6;1.4;;;;;;;25.2;60.33496;935.6442;;;;
2022/08/27 10:08:19;;;;;;;2.4;1.8;;;;;;;25.74;61.03516;935.6306;;;;
2022/08/27 10:10:44;;;;;;;2;1.9;;;;;;;26.63;53.57617;935.62;;;;
2022/08/27 10:13:09;;;;;;;2.4;2.1;;;;;;;26.56;54.97559;935.5865;;;;
2022/08/27 10:15:36;;;;;;;2.3;2.1;;;;;;;26.32;56.42578;935.5928;;;;
2022/08/27 10:18:04;;;;;;;3;1.6;;;;;;;26.26;53.82715;935.5137;;;;
2022/08/27 10:20:28;;;;;;;2.3;2.1;;;;;;;26.32;55.40918;935.5184;;;;
2022/08/27 10:22:53;;;;;;;4.3;2.3;;;;;;;25.65;56.23438;935.4727;;;;
2022/08/27 10:25:20;;;;;;;11.1;4.9;;;;;;;25.69;57.75293;935.4771;;;;
2022/08/27 10:27:45;;;;;;;1.7;1.6;;;;;;;25.6;55.70996;935.5129;;;;
2022/08/27 10:30:18;;;;;;;2.4;1.5;;;;;;;25.42;59.02832;935.502;;;;
2022/08/27 10:32:43;;;;;;;1.7;1.6;;;;;;;25.1;59.60059;935.4554;;;;
2022/08/27 10:35:08;;;;;;;1.9;1.8;;;;;;;25.05;57.60059;935.4578;;;;
2022/08/27 10:37:33;;;;;;;2.6;1.9;;;;;;;25.26;57.51953;935.4467;;;;
2022/08/27 10:39:58;;;;;;;1.7;1.6;;;;;;;25;60.89746;935.4686;;;;
2022/08/27 10:42:23;;;;;;;2;1.9;;;;;;;25.41;58.12988;935.4844;;;;
2022/08/27 10:44:50;;;;;;;2.1;1.8;;;;;;;25.56;59.34277;935.4597;;;;
2022/08/27 10:47:15;;;;;;;2.1;2;;;;;;;25.61;57.30566;935.3911;;;;
2022/08/27 10:49:40;;;;;;;2.3;1.8;;;;;;;25.28;59.80176;935.4236;;;;
2022/08/27 10:52:05;;;;;;;1.9;1.8;;;;;;;25.05;59.2168;935.3936;;;;
2022/08/27 10:54:31;;;;;;;2.5;1.8;;;;;;;25.45;57.00195;935.3636;;;;
2022/08/27 10:56:56;;;;;;;2;1.9;;;;;;;25.29;59.62598;935.3881;;;;
2022/08/27 10:59:28;;;;;;;3.3;1.6;;;;;;;25.04;59.95898;935.3387;;;;
2022/08/27 11:01:59;;;;;;;2.1;1.8;;;;;;;25.03;60.81836;935.3204;;;;
2022/08/27 11:04:25;;;;;;;2;1.8;;;;;;;24.91;61.22656;935.3074;;;;
2022/08/27 11:06:52;;;;;;;2.1;1.9;;;;;;;24.78;63.87402;935.1972;;;;
2022/08/27 11:09:18;;;;;;;2.2;1.9;;;;;;;24.8;62.79297;935.2653;;;;
2022/08/27 11:11:43;;;;;;;2.2;2;;;;;;;24.63;61.93164;935.2062;;;;
2022/08/27 11:14:10;;;;;;;2.2;2;;;;;;;24.31;62.66504;935.197;;;;
2022/08/27 11:16:37;;;;;;;2.4;1.9;;;;;;;24.35;63.03516;935.1633;;;;
2022/08/27 11:19:09;;;;;;;2.1;1.9;;;;;;;25.07;58.75879;935.1178;;;;
2022/08/27 11:21:27;;;;;;;1.8;1.6;;;;;;;25.57;57.86719;935.0948;;;;
2022/08/27 11:23:52;;;;;;;1.9;1.8;;;;;;;26.13;54.98242;935.0545;;;;
2022/08/27 11:26:19;;;;;;;2.1;1.9;;;;;;;25.92;59.99414;935.0253;;;;
2022/08/27 11:28:46;;;;;;;1.8;1.7;;;;;;;26;59.58984;934.9956;;;;
2022/08/27 11:31:10;;;;;;;2.2;2;;;;;;;26.15;59.89453;935.0005;;;;
2022/08/27 11:33:39;;;;;;;2.1;1.9;;;;;;;26.42;59.59863;935.0031;;;;
2022/08/27 11:36:06;;;;;;;2.2;1.8;;;;;;;26.72;56.14453;934.9397;;;;
2022/08/27 11:38:30;;;;;;;2.5;2;;;;;;;27.6;57.70313;934.9222;;;;
2022/08/27 11:40:58;;;;;;;2.2;1.8;;;;;;;27.99;54.26074;934.8028;;;;
2022/08/27 11:43:23;;;;;;;2.1;1.8;;;;;;;28.23;56.82129;934.8395;;;;
2022/08/27 11:45:51;;;;;;;2.2;2;;;;;;;28.75;51.5332;934.8447;;;;
2022/08/27 11:48:16;;;;;;;3.8;2.2;;;;;;;27.27;54.81348;934.8051;;;;
2022/08/27 11:50:46;;;;;;;2;1.8;;;;;;;26.52;56.55859;934.7734;;;;
2022/08/27 11:53:11;;;;;;;2.8;2;;;;;;;25.68;58.49707;934.829;;;;
2022/08/27 11:55:36;;;;;;;3.4;2.1;;;;;;;24.93;60.94629;934.8541;;;;
2022/08/27 11:58:04;;;;;;;3.4;2.2;;;;;;;25.47;61.30371;934.8334;;;;
2022/08/27 12:00:29;;;;;;;2.2;2;;;;;;;26.82;60.54102;934.7497;;;;
2022/08/27 12:02:58;;;;;;;3.8;1.8;;;;;;;28.13;54.37305;934.6633;;;;
2022/08/27 12:05:23;;;;;;;2.7;2;;;;;;;28.39;52.38281;934.7939;;;;
2022/08/27 12:07:48;;;;;;;2.1;1.9;;;;;;;27.99;53.6084;934.7053;;;;
2022/08/27 12:10:18;;;;;;;2.2;2;;;;;;;27.21;55.90918;934.7202;;;;
2022/08/27 12:12:42;;;;;;;2;1.9;;;;;;;27.22;55.09277;934.7587;;;;
2022/08/27 12:15:13;;;;;;;3.7;2.3;;;;;;;26.51;55.07715;934.6996;;;;
2022/08/27 12:17:41;;;;;;;2.3;2;;;;;;;26.5;57.88086;934.7446;;;;
2022/08/27 12:20:17;;;;;;;2.6;1.9;;;;;;;26.98;56.95996;934.7305;;;;
2022/08/27 12:25:12;;;;;;;2.3;1.9;;;;;;;28.03;54.43262;934.7078;;;;
2022/08/27 12:27:40;;;;;;;2.5;2;;;;;;;29.1;51.44141;934.6926;;;;
2022/08/27 12:30:05;;;;;;;2.3;2.1;;;;;;;29.17;49.04297;934.7111;;;;
2022/08/27 12:32:31;;;;;;;2.4;1.8;;;;;;;29.31;48.68945;934.6403;;;;
2022/08/27 12:35:02;;;;;;;1.9;1.7;;;;;;;30.55;46.4707;934.5881;;;;
2022/08/27 12:37:27;;;;;;;2;1.9;;;;;;;31.08;44.57422;934.6208;;;;
2022/08/27 12:39:57;;;;;;;2;1.8;;;;;;;29.99;45.73242;934.5608;;;;
2022/08/27 12:42:31;;;;;;;2.7;1.6;;;;;;;28.12;52.86328;934.5524;;;;
2022/08/27 12:44:56;;;;;;;2.1;1.9;;;;;;;29.02;48.97949;934.5471;;;;
2022/08/27 12:47:21;;;;;;;1.8;1.7;;;;;;;29.29;49.25879;934.574;;;;
2022/08/27 12:49:49;;;;;;;1.9;1.8;;;;;;;30.14;45.65234;934.4877;;;;
2022/08/27 12:52:14;;;;;;;2;1.8;;;;;;;29.88;45.55371;934.4224;;;;
2022/08/27 12:54:41;;;;;;;1.9;1.8;;;;;;;29.44;48.31055;934.4006;;;;
2022/08/27 12:57:09;;;;;;;1.6;1.5;;;;;;;29.58;48.08789;934.4378;;;;
2022/08/27 12:59:35;;;;;;;1.8;1.7;;;;;;;29.87;46.42383;934.3898;;;;
2022/08/27 13:02:02;;;;;;;1.6;1.5;;;;;;;30.09;47.01953;934.3875;;;;
2022/08/27 13:04:27;;;;;;;2.2;1.8;;;;;;;30.78;44.46191;934.416;;;;
2022/08/27 13:06:54;;;;;;;2;1.8;;;;;;;31.03;41.67578;934.3865;;;;
2022/08/27 13:09:19;;;;;;;1.8;1.7;;;;;;;30.93;43.40039;934.3768;;;;
2022/08/27 13:11:44;;;;;;;1.8;1.7;;;;;;;30.37;45.6875;934.3639;;;;
2022/08/27 13:14:11;;;;;;;3.9;1.9;;;;;;;29.82;45.4873;934.3597;;;;
2022/08/27 13:16:36;;;;;;;1.9;1.8;;;;;;;29.77;46.17578;934.3391;;;;
2022/08/27 13:19:02;;;;;;;1.7;1.6;;;;;;;29.14;48.66016;934.3231;;;;
2022/08/27 13:21:29;;;;;;;2;1.8;;;;;;;28.4;49.01953;934.2628;;;;
2022/08/27 13:23:54;;;;;;;2;1.8;;;;;;;27.77;49.53223;934.3133;;;;
2022/08/27 13:26:19;;;;;;;2.7;1.9;;;;;;;27.05;50.8877;934.3005;;;;
2022/08/27 13:28:48;;;;;;;2.2;2;;;;;;;26.5;53.14551;934.285;;;;
2022/08/27 13:31:13;;;;;;;2.2;1.9;;;;;;;26.35;54.56055;934.3814;;;;
2022/08/27 13:33:39;;;;;;;2.2;2;;;;;;;26.26;56.54785;934.3358;;;;
2022/08/27 13:36:05;;;;;;;2.3;1.8;;;;;;;25.88;57.88477;934.3753;;;;
2022/08/27 13:38:29;;;;;;;2.8;1.8;;;;;;;25.8;57.06934;934.3064;;;;
2022/08/27 13:40:54;;;;;;;2.2;2;;;;;;;25.11;58.68164;934.3638;;;;
2022/08/27 13:43:24;;;;;;;2;1.8;;;;;;;25.23;58.81543;934.4165;;;;
2022/08/27 13:45:50;;;;;;;2.1;1.9;;;;;;;25.4;57.04199;934.4238;;;;
2022/08/27 13:48:18;;;;;;;1.8;1.7;;;;;;;25.36;57.34473;934.4127;;;;
2022/08/27 13:50:43;;;;;;;2;1.9;;;;;;;25.12;58.15137;934.4326;;;;
2022/08/27 13:55:58;;;;;;;2.3;2.1;;;;;;;25.05;58.75684;934.4492;;;;
2022/08/27 13:58:28;;;;;;;2.1;1.9;;;;;;;25.24;56.49023;934.4788;;;;
2022/08/27 14:00:58;;;;;;;2.4;1.8;;;;;;;25.3;56.54688;934.472;;;;
2022/08/27 14:03:23;;;;;;;2.3;2.1;;;;;;;25.11;57.48926;934.4892;;;;
2022/08/27 14:05:48;;;;;;;2.6;1.8;;;;;;;25.02;56.52148;934.5175;;;;
2022/08/27 14:08:17;;;;;;;2.6;2;;;;;;;25.15;56.91699;934.5248;;;;
2022/08/27 14:10:42;;;;;;;2.5;2;;;;;;;25.12;56.70117;934.4952;;;;
2022/08/27 14:13:07;;;;;;;2.9;2;;;;;;;25.14;56.14746;934.545;;;;
2022/08/27 14:15:40;;;;;;;2;1.8;;;;;;;25.2;56.21387;934.5385;;;;
2022/08/27 14:18:05;;;;;;;2.1;1.9;;;;;;;25.2;56.38086;934.5903;;;;
2022/08/27 14:20:31;;;;;;;3.7;2.1;;;;;;;25.26;56.42188;934.5991;;;;
2022/08/27 14:22:58;;;;;;;2;1.8;;;;;;;25.02;57.76172;934.5358;;;;
2022/08/27 14:25:26;;;;;;;2.5;2;;;;;;;24.95;57.78711;934.5209;;;;
2022/08/27 14:27:52;;;;;;;2.6;2.4;;;;;;;24.8;60.26855;934.582;;;;
2022/08/27 14:30:17;;;;;;;2.5;2.3;;;;;;;24.8;59.56055;934.5801;;;;
2022/08/27 14:32:43;;;;;;;2.9;2.6;;;;;;;24.67;60.84082;934.5257;;;;
2022/08/27 14:35:12;;;;;;;2.9;2.4;;;;;;;24.69;60.66699;934.5126;;;;
2022/08/27 14:37:42;;;;;;;3.1;2.5;;;;;;;24.1;61.76367;934.5151;;;;
2022/08/27 14:40:07;;;;;;;3.3;2.7;;;;;;;24.03;62.7666;934.5662;;;;
2022/08/27 14:42:33;;;;;;;2.8;2.4;;;;;;;23.58;63.9375;934.4984;;;;
2022/08/27 14:44:57;;;;;;;2.5;2.3;;;;;;;23.43;64.73828;934.5685;;;;
2022/08/27 14:47:25;;;;;;;2.6;2.4;;;;;;;23.42;65.06738;934.5977;;;;
2022/08/27 14:49:50;;;;;;;3.4;2.5;;;;;;;23.27;66.43164;934.6362;;;;
2022/08/27 14:52:16;;;;;;;3;2.5;;;;;;;22.94;67.73438;934.5897;;;;
2022/08/27 14:54:41;;;;;;;2.6;2.4;;;;;;;23.24;67.5459;934.6497;;;;
2022/08/27 14:57:10;;;;;;;2.5;2.3;;;;;;;22.93;68.74121;934.7079;;;;
2022/08/27 14:59:35;;;;;;;2.7;2.5;;;;;;;23.15;67.82422;934.6838;;;;
2022/08/27 15:02:03;;;;;;;3.5;3.2;;;;;;;23.26;67.60645;934.7719;;;;
2022/08/27 15:04:28;;;;;;;3.8;2.8;;;;;;;23.21;68.92676;934.7004;;;;
2022/08/27 15:06:54;;;;;;;3.5;3;;;;;;;22.79;70.36426;934.8514;;;;
2022/08/27 15:09:20;;;;;;;4.6;3;;;;;;;22.81;70.75586;934.7986;;;;
2022/08/27 15:11:48;;;;;;;3.3;2.7;;;;;;;22.92;69.62109;934.7407;;;;
2022/08/27 15:14:13;;;;;;;3.7;3;;;;;;;22.71;71.45605;934.8035;;;;
2022/08/27 15:16:38;;;;;;;5;3.4;;;;;;;22.62;71.52246;934.7902;;;;
2022/08/27 15:19:07;;;;;;;3.6;3.3;;;;;;;22.81;71.27246;934.8958;;;;
2022/08/27 15:21:32;;;;;;;4.3;3.8;;;;;;;22.85;70.39746;934.9078;;;;
2022/08/27 15:24:01;;;;;;;5;3.5;;;;;;;22.83;71.66309;934.9539;;;;
2022/08/27 15:26:29;;;;;;;4;3.6;;;;;;;22.95;71.71582;934.9183;;;;
2022/08/27 15:28:54;;;;;;;5.6;3.2;;;;;;;22.89;72.23535;934.9281;;;;
2022/08/27 15:31:24;;;;;;;3.7;3.2;;;;;;;22.96;72.6582;934.9519;;;;
2022/08/27 15:33:49;;;;;;;4.3;3;;;;;;;22.89;73.32813;934.9863;;;;
2022/08/27 15:36:15;;;;;;;3.8;3.1;;;;;;;22.53;74.33789;935.0187;;;;
2022/08/27 15:38:45;;;;;;;4.4;2.8;;;;;;;22.55;75.44336;934.9828;;;;
2022/08/27 15:41:11;;;;;;;3.8;3.4;;;;;;;22.43;75.91602;935.0226;;;;
2022/08/27 15:43:36;;;;;;;3.5;3.1;;;;;;;22.22;76.63184;935.0235;;;;
2022/08/27 15:46:01;;;;;;;3.3;2.8;;;;;;;22.21;76.94531;935.0622;;;;
2022/08/27 15:48:31;;;;;;;4.6;3.1;;;;;;;21.96;76.08203;935.0625;;;;
2022/08/27 15:51:00;;;;;;;3.5;3.2;;;;;;;22;76.94238;935.1211;;;;
2022/08/27 15:53:25;;;;;;;4.7;3.3;;;;;;;22.01;76.81836;935.1027;;;;
2022/08/27 15:55:51;;;;;;;4.8;3.3;;;;;;;22.14;76.51074;935.1097;;;;